Time;durP1;ratioP1;P1;durP2;ratioP2;P2;SDS_P1;SDS_P2;PMS_P1;PMS_P2;Temp;Humidity;BMP_temperature;BMP_pressure;BME280_temperature;BME280_humidity;BME280_pressure;Samples;Min_cycle;Max_cycle;Signal;HPM_P1;HPM_P2
2023/01/26 00:00:48;;;;;;;53.05;19.20;;;-0.20;99.90;;;;;;4953832;28;20042;-87
2023/01/26 00:03:14;;;;;;;58.45;19.20;;;-0.50;99.90;;;;;;4985897;28;20046;-88
2023/01/26 00:05:40;;;;;;;55.85;20.17;;;-0.30;99.90;;;;;;4979587;28;20047;-88
2023/01/26 00:08:07;;;;;;;57.13;20.27;;;-0.40;99.90;;;;;;4967918;28;20046;-87
2023/01/26 00:10:36;;;;;;;63.13;19.33;;;-0.40;99.90;;;;;;4972103;28;20049;-88
2023/01/26 00:13:02;;;;;;;58.17;19.02;;;-0.30;99.90;;;;;;4970193;28;20095;-88
2023/01/26 00:15:27;;;;;;;58.45;20.05;;;-0.30;99.90;;;;;;4958692;28;20042;-88
2023/01/26 00:17:53;;;;;;;60.28;19.33;;;-0.20;99.90;;;;;;4958881;28;20043;-88
2023/01/26 00:20:19;;;;;;;55.63;19.17;;;-0.50;99.90;;;;;;4957521;28;20069;-88
2023/01/26 00:22:45;;;;;;;60.75;20.70;;;-0.30;99.90;;;;;;4974903;28;20097;-87
2023/01/26 00:25:10;;;;;;;55.85;19.40;;;-0.20;99.90;;;;;;4976135;28;20072;-89
2023/01/26 00:27:36;;;;;;;58.13;18.98;;;-0.20;99.90;;;;;;4976713;28;20508;-88
2023/01/26 00:30:02;;;;;;;63.25;20.58;;;-0.30;99.90;;;;;;4959991;28;20118;-88
2023/01/26 00:32:34;;;;;;;60.58;20.73;;;-0.20;99.90;;;;;;4973937;28;20042;-89
2023/01/26 00:35:00;;;;;;;54.63;19.45;;;0.00;99.90;;;;;;4960462;28;20046;-89
2023/01/26 00:37:28;;;;;;;55.33;19.60;;;-0.10;99.90;;;;;;4997119;28;20034;-88
2023/01/26 00:39:54;;;;;;;56.22;20.17;;;-0.20;99.90;;;;;;4953944;28;20508;-89
2023/01/26 00:42:23;;;;;;;53.45;18.98;;;-0.30;99.90;;;;;;4960901;28;20046;-88
2023/01/26 00:44:49;;;;;;;58.05;19.08;;;-0.20;99.90;;;;;;4977175;28;20125;-88
2023/01/26 00:47:16;;;;;;;56.97;18.95;;;-0.30;99.90;;;;;;4976632;28;20082;-88
2023/01/26 00:49:43;;;;;;;50.22;18.80;;;0.00;99.90;;;;;;4960366;28;20551;-88
2023/01/26 00:52:10;;;;;;;58.97;21.42;;;-0.10;99.90;;;;;;4991601;28;20488;-89
2023/01/26 00:54:35;;;;;;;61.28;20.00;;;-0.10;99.90;;;;;;4963880;28;20092;-88
2023/01/26 00:57:01;;;;;;;58.58;20.63;;;-0.30;99.90;;;;;;4978697;28;20053;-89
2023/01/26 00:59:31;;;;;;;54.08;19.02;;;-0.20;99.90;;;;;;4976221;28;20049;-89
2023/01/26 01:02:01;;;;;;;59.75;20.35;;;1.20;99.90;;;;;;4976946;28;20050;-88
2023/01/26 01:04:28;;;;;;;52.85;19.02;;;0.00;99.90;;;;;;4957360;28;20045;-90
2023/01/26 01:06:55;;;;;;;52.17;18.30;;;-0.20;99.90;;;;;;4984812;28;20507;-89
2023/01/26 01:09:20;;;;;;;58.30;18.90;;;0.60;99.90;;;;;;4978222;28;20089;-88
2023/01/26 01:11:46;;;;;;;52.05;17.70;;;-0.20;99.90;;;;;;4975811;28;20427;-88
2023/01/26 01:14:13;;;;;;;50.67;19.10;;;-0.20;99.90;;;;;;4983016;28;20141;-89
2023/01/26 01:16:40;;;;;;;55.67;19.00;;;-0.20;99.90;;;;;;4979855;28;20050;-88
2023/01/26 01:19:06;;;;;;;53.28;17.77;;;-0.10;99.90;;;;;;4959376;28;20052;-88
2023/01/26 01:21:32;;;;;;;56.60;19.00;;;0.20;99.90;;;;;;4975656;28;20132;-87
2023/01/26 01:23:59;;;;;;;59.08;20.27;;;0.20;99.90;;;;;;4971569;28;20160;-88
2023/01/26 01:26:25;;;;;;;55.92;20.05;;;2.20;99.90;;;;;;4988399;28;20182;-88
2023/01/26 01:28:54;;;;;;;57.70;17.40;;;0.00;99.90;;;;;;4960661;28;20108;-87
2023/01/26 01:31:21;;;;;;;49.70;18.70;;;0.40;99.90;;;;;;4971462;28;20142;-87
2023/01/26 01:33:46;;;;;;;49.42;17.45;;;-0.10;99.90;;;;;;4977040;28;20042;-88
2023/01/26 01:36:14;;;;;;;51.25;18.10;;;0.00;99.90;;;;;;4963577;28;20096;-88
2023/01/26 01:38:41;;;;;;;53.10;18.10;;;0.10;99.90;;;;;;4977287;28;20078;-89
2023/01/26 01:41:07;;;;;;;50.65;17.77;;;-0.10;99.90;;;;;;4978542;28;20042;-87
2023/01/26 01:43:33;;;;;;;45.67;16.80;;;-0.40;99.90;;;;;;4976868;28;20048;-88
2023/01/26 01:46:02;;;;;;;50.08;18.00;;;-0.10;99.90;;;;;;4983036;28;20136;-89
2023/01/26 01:48:51;;;;;;;50.10;17.98;;;0.20;99.90;;;;;;4983734;28;20134;-88
2023/01/26 01:51:30;;;;;;;51.30;18.10;;;0.10;99.90;;;;;;4972373;28;20108;-90
2023/01/26 01:53:58;;;;;;;49.97;17.20;;;0.00;99.90;;;;;;4965087;28;20057;-89
2023/01/26 01:56:27;;;;;;;50.85;17.20;;;0.10;99.90;;;;;;4969091;28;20405;-89
2023/01/26 01:58:56;;;;;;;49.83;17.67;;;0.00;99.90;;;;;;4975083;28;20038;-90
2023/01/26 02:01:23;;;;;;;43.75;16.80;;;-0.20;99.90;;;;;;4965863;28;20081;-89
2023/01/26 02:03:53;;;;;;;53.22;17.73;;;-0.20;99.90;;;;;;4969420;28;20038;-89
2023/01/26 02:06:25;;;;;;;52.53;18.02;;;0.20;99.90;;;;;;4967624;28;20488;-89
2023/01/26 02:08:54;;;;;;;50.97;18.15;;;0.10;99.90;;;;;;4960484;28;20050;-89
2023/01/26 02:11:28;;;;;;;52.10;16.92;;;0.10;99.90;;;;;;4993799;28;20042;-89
2023/01/26 02:14:00;;;;;;;53.85;17.83;;;0.10;99.90;;;;;;4967612;28;20045;-89
2023/01/26 02:16:26;;;;;;;46.53;17.23;;;-0.30;99.90;;;;;;4968872;28;20082;-89
2023/01/26 02:18:52;;;;;;;56.72;17.80;;;-0.60;99.90;;;;;;4945228;28;20334;-89
2023/01/26 02:21:20;;;;;;;51.03;17.40;;;0.10;99.90;;;;;;4967939;28;20457;-89
2023/01/26 02:24:05;;;;;;;45.53;15.68;;;0.10;99.90;;;;;;4996813;28;20747;-89
2023/01/26 02:26:35;;;;;;;49.88;17.75;;;-0.40;99.90;;;;;;4957549;28;20116;-89
2023/01/26 02:29:03;;;;;;;44.90;17.75;;;0.10;99.90;;;;;;4993068;28;20100;-89
2023/01/26 02:31:30;;;;;;;53.80;16.67;;;1.40;99.90;;;;;;4969469;28;20042;-89
2023/01/26 02:33:56;;;;;;;43.20;16.15;;;0.10;99.90;;;;;;4972671;28;20471;-89
2023/01/26 02:36:22;;;;;;;48.00;17.25;;;0.10;99.90;;;;;;4990335;28;20056;-89
2023/01/26 02:39:03;;;;;;;48.03;17.13;;;-0.30;99.90;;;;;;4993787;28;20133;-89
2023/01/26 02:44:14;;;;;;;42.78;15.10;;;0.40;99.90;;;;;;4977222;28;20451;-89
2023/01/26 02:46:39;;;;;;;45.72;16.80;;;0.20;99.90;;;;;;4979728;28;20041;-89
2023/01/26 02:51:55;;;;;;;41.53;15.10;;;1.00;99.90;;;;;;4981538;28;20061;-90
2023/01/26 02:57:07;;;;;;;44.30;15.45;;;0.20;99.90;;;;;;4981038;28;20047;-90
2023/01/26 02:59:33;;;;;;;35.53;13.77;;;-0.40;99.90;;;;;;4967470;28;20038;-89
2023/01/26 03:01:59;;;;;;;41.40;14.45;;;1.40;99.90;;;;;;4970046;28;20459;-90
2023/01/26 03:04:25;;;;;;;38.67;14.50;;;0.30;99.90;;;;;;4971325;28;21711;-90
2023/01/26 03:06:51;;;;;;;37.15;14.00;;;0.30;99.90;;;;;;4968296;28;20508;-90
2023/01/26 03:09:17;;;;;;;34.50;12.52;;;-0.10;99.90;;;;;;4943183;28;20081;-90
2023/01/26 03:11:43;;;;;;;37.72;12.90;;;0.10;99.90;;;;;;4967094;28;20073;-90
2023/01/26 03:14:13;;;;;;;35.67;13.27;;;0.00;99.90;;;;;;4966089;28;20468;-90
2023/01/26 03:16:39;;;;;;;35.35;13.77;;;0.40;99.90;;;;;;4969024;28;20042;-89
2023/01/26 03:29:46;;;;;;;36.30;11.95;;;1.50;99.90;;;;;;4984941;28;20141;-91
2023/01/26 03:32:12;;;;;;;30.40;12.00;;;0.10;99.90;;;;;;4968727;28;20133;-92
2023/01/26 03:34:41;;;;;;;33.78;12.20;;;-0.30;99.90;;;;;;4966176;28;20137;-93
2023/01/26 03:37:10;;;;;;;31.45;12.07;;;1.20;99.90;;;;;;4969087;28;20042;-93
2023/01/26 03:56:17;;;;;;;26.92;10.82;;;0.40;99.90;;;;;;4991040;28;20041;-94
2023/01/26 03:58:46;;;;;;;32.67;12.05;;;1.30;99.90;;;;;;4983736;28;20040;-93
2023/01/26 04:01:19;;;;;;;27.63;11.32;;;0.40;99.90;;;;;;4988148;28;20038;-94
2023/01/26 04:09:25;;;;;;;30.50;10.90;;;0.50;99.90;;;;;;4980386;28;20093;-93
2023/01/26 04:11:55;;;;;;;26.23;11.30;;;0.40;99.90;;;;;;4961543;28;20145;-94
2023/01/26 04:21:28;;;;;;;28.77;10.48;;;0.50;99.90;;;;;;4994434;28;20042;-96
2023/01/26 04:24:55;;;;;;;24.00;10.88;;;1.70;99.90;;;;;;4929401;29;20059;-94
2023/01/26 04:27:50;;;;;;;;;;;;;;;;;;;;;
2023/01/26 04:31:18;;;;;;;;;;;;;;;;;;;;;
2023/01/26 04:41:20;;;;;;;28.65;10.57;;;0.80;99.90;;;;;;4910869;28;20050;-94
2023/01/26 04:44:03;;;;;;;26.17;10.00;;;1.40;99.90;;;;;;4953429;28;20435;-95
2023/01/26 04:49:29;;;;;;;28.85;10.25;;;1.20;99.90;;;;;;4917078;29;20107;-94
2023/01/26 04:51:55;;;;;;;32.45;11.50;;;0.10;99.90;;;;;;4903189;28;20151;-94
2023/01/26 04:54:55;;;;;;;26.33;10.75;;;0.40;99.90;;;;;;4940833;28;20120;-93
2023/01/26 04:57:43;;;;;;;27.85;10.25;;;2.10;99.90;;;;;;4934724;28;20414;-93
2023/01/26 05:00:15;;;;;;;26.23;10.60;;;0.40;99.90;;;;;;4925000;28;20043;-94
2023/01/26 05:02:41;;;;;;;27.40;10.27;;;1.00;99.90;;;;;;4964076;28;20039;-93
2023/01/26 05:05:07;;;;;;;24.70;10.40;;;2.60;99.90;;;;;;4966403;28;20034;-92
2023/01/26 05:07:33;;;;;;;33.17;11.32;;;1.20;99.90;;;;;;4966132;28;20129;-94
2023/01/26 05:09:58;;;;;;;24.70;9.82;;;0.40;99.90;;;;;;4965185;28;20128;-94
2023/01/26 05:12:33;;;;;;;28.33;11.05;;;0.50;99.90;;;;;;4970023;28;20042;-94
2023/01/26 05:14:58;;;;;;;25.60;9.63;;;0.90;99.90;;;;;;4974756;28;20051;-93
2023/01/26 05:17:24;;;;;;;26.83;10.05;;;0.70;99.90;;;;;;4963967;28;20054;-93
2023/01/26 05:19:50;;;;;;;28.95;11.27;;;0.60;99.90;;;;;;4958160;28;20043;-92
2023/01/26 05:22:17;;;;;;;25.98;10.98;;;0.60;99.90;;;;;;4978830;28;20053;-92
2023/01/26 05:24:43;;;;;;;24.17;10.82;;;1.20;99.90;;;;;;4969986;28;20656;-92
2023/01/26 05:27:21;;;;;;;28.55;11.13;;;0.80;99.90;;;;;;4969181;28;20042;-93
2023/01/26 05:29:47;;;;;;;27.80;10.25;;;0.60;99.90;;;;;;4968978;28;20046;-92
2023/01/26 05:32:13;;;;;;;29.90;11.65;;;0.60;99.90;;;;;;4968205;28;20052;-92
2023/01/26 05:34:38;;;;;;;23.77;10.88;;;0.50;99.90;;;;;;4966303;28;20472;-92
2023/01/26 05:37:04;;;;;;;31.42;12.20;;;0.60;99.90;;;;;;4965304;28;20089;-92
2023/01/26 05:39:30;;;;;;;34.08;12.10;;;0.70;99.90;;;;;;4965139;28;20077;-92
2023/01/26 05:41:55;;;;;;;31.58;11.48;;;0.80;99.90;;;;;;4967241;28;20092;-91
2023/01/26 05:44:23;;;;;;;28.42;11.25;;;0.60;99.90;;;;;;4967554;28;20164;-92
2023/01/26 05:46:49;;;;;;;34.97;11.88;;;1.30;99.90;;;;;;4970041;28;20823;-92
2023/01/26 05:49:15;;;;;;;29.63;11.60;;;0.70;99.90;;;;;;4960806;28;20133;-92
2023/01/26 05:51:40;;;;;;;32.97;12.43;;;0.70;99.90;;;;;;4960465;28;20056;-93
2023/01/26 05:54:06;;;;;;;31.70;11.52;;;0.60;99.90;;;;;;4962827;28;20662;-92
2023/01/26 05:56:32;;;;;;;35.92;12.90;;;0.90;99.90;;;;;;4968540;28;21236;-92
2023/01/26 05:58:58;;;;;;;37.05;13.10;;;0.80;99.90;;;;;;4968075;28;20133;-92
2023/01/26 06:01:23;;;;;;;33.53;12.15;;;0.80;99.90;;;;;;4967776;28;20038;-92
2023/01/26 06:03:49;;;;;;;37.63;13.65;;;0.80;99.90;;;;;;4981528;28;20049;-93
2023/01/26 06:06:15;;;;;;;37.22;13.43;;;0.80;99.90;;;;;;4965944;28;20069;-92
2023/01/26 06:08:40;;;;;;;34.83;12.45;;;0.80;99.90;;;;;;4978292;28;20113;-92
2023/01/26 06:11:06;;;;;;;39.35;14.02;;;0.60;99.90;;;;;;4964202;28;20411;-92
2023/01/26 06:13:31;;;;;;;43.25;13.68;;;0.80;99.90;;;;;;4969613;28;20578;-92
2023/01/26 06:16:00;;;;;;;47.78;13.98;;;2.00;99.90;;;;;;4966338;28;20046;-92
2023/01/26 06:18:26;;;;;;;42.22;14.77;;;0.90;99.90;;;;;;4988932;28;20042;-92
2023/01/26 06:20:52;;;;;;;55.28;15.55;;;0.40;99.90;;;;;;4971880;28;20053;-93
2023/01/26 06:23:18;;;;;;;39.03;13.05;;;0.90;99.90;;;;;;4965830;28;20568;-93
2023/01/26 06:25:43;;;;;;;45.00;14.30;;;1.20;99.90;;;;;;4935738;28;20050;-91
2023/01/26 06:28:09;;;;;;;41.55;13.52;;;1.90;99.90;;;;;;4932050;28;20058;-91
2023/01/26 06:30:38;;;;;;;39.35;13.20;;;2.60;99.90;;;;;;4936696;28;20044;-90
2023/01/26 06:33:05;;;;;;;57.72;14.50;;;;;;;;;;4936933;29;20619;-95
2023/01/26 06:35:34;;;;;;;44.35;14.07;;;;;;;;;;4940266;29;20129;-93
2023/01/26 06:38:00;;;;;;;38.65;14.00;;;;;;;;;;4938449;29;20047;-92
2023/01/26 06:40:27;;;;;;;47.92;15.05;;;;;;;;;;4935991;29;20039;-90
2023/01/26 06:42:53;;;;;;;55.60;15.63;;;;;;;;;;4944895;29;20055;-92
2023/01/26 06:45:25;;;;;;;41.53;13.85;;;;;;;;;;4943347;28;20058;-91
2023/01/26 06:47:52;;;;;;;46.92;13.95;;;;;;;;;;4938727;29;20062;-89
2023/01/26 06:50:19;;;;;;;36.83;14.15;;;;;;;;;;4937658;29;20054;-91
2023/01/26 06:52:57;;;;;;;43.30;14.68;;;;;;;;;;4938191;29;20063;-91
2023/01/26 06:55:34;;;;;;;47.95;15.35;;;;;;;;;;4937189;29;20533;-92
2023/01/26 06:58:01;;;;;;;50.42;15.40;;;;;;;;;;4937458;29;20091;-91
2023/01/26 07:00:27;;;;;;;54.97;15.60;;;;;;;;;;4937294;29;20043;-90
2023/01/26 07:02:55;;;;;;;44.10;15.60;;;;;;;;;;4937376;29;20055;-90
2023/01/26 07:05:21;;;;;;;36.55;13.77;;;;;;;;;;4935832;29;20047;-91
2023/01/26 07:07:47;;;;;;;48.95;15.43;;;;;;;;;;4935459;29;20040;-91
2023/01/26 07:10:13;;;;;;;45.40;15.70;;;;;;;;;;4936272;29;20066;-91
2023/01/26 07:12:44;;;;;;;45.28;15.13;;;;;;;;;;4937032;28;20047;-92
2023/01/26 07:15:11;;;;;;;54.63;16.05;;;;;;;;;;4936887;29;20051;-91
2023/01/26 07:17:37;;;;;;;46.28;15.75;;;;;;;;;;4937341;29;20047;-90
2023/01/26 07:20:06;;;;;;;39.05;15.30;;;;;;;;;;4936524;29;20058;-93
2023/01/26 07:22:32;;;;;;;42.88;14.50;;;;;;;;;;4934512;29;20054;-91
2023/01/26 07:24:58;;;;;;;56.47;14.50;;;;;;;;;;4982678;28;20054;-91
2023/01/26 07:27:24;;;;;;;43.67;15.38;;;;;;;;;;4975449;28;20108;-91
2023/01/26 07:29:51;;;;;;;47.30;14.63;;;;;;;;;;4975943;28;20052;-92
2023/01/26 07:32:17;;;;;;;59.35;17.85;;;;;;;;;;4976156;28;20089;-91
2023/01/26 07:34:43;;;;;;;51.67;16.75;;;;;;;;;;4975538;28;20539;-90
2023/01/26 07:37:09;;;;;;;50.20;16.85;;;;;;;;;;4975496;28;20110;-91
2023/01/26 07:39:35;;;;;;;48.13;18.55;;;;;;;;;;4970913;28;20042;-91
2023/01/26 07:42:01;;;;;;;55.92;16.70;;;;;;;;;;4955673;28;20054;-91
2023/01/26 07:44:27;;;;;;;57.83;15.85;;;;;;;;;;4970618;28;20073;-91
2023/01/26 07:46:53;;;;;;;67.07;17.90;;;;;;;;;;4954777;28;20133;-90
2023/01/26 07:49:19;;;;;;;53.72;15.90;;;2.60;99.90;;;;;;4951619;28;20043;-91
2023/01/26 07:51:45;;;;;;;57.75;15.93;;;1.30;99.90;;;;;;4951221;28;20153;-90
2023/01/26 07:54:13;;;;;;;52.42;16.23;;;1.50;99.90;;;;;;4947248;28;20855;-91
2023/01/26 07:56:39;;;;;;;68.95;15.93;;;0.30;99.90;;;;;;4936595;28;20047;-91
2023/01/26 07:59:09;;;;;;;69.35;16.90;;;1.30;99.90;;;;;;4938896;29;20043;-93
2023/01/26 08:01:35;;;;;;;88.82;19.42;;;1.30;99.90;;;;;;4938863;28;20051;-95
2023/01/26 08:04:00;;;;;;;84.80;17.50;;;1.20;99.90;;;;;;4939905;28;20441;-90
2023/01/26 08:06:26;;;;;;;81.93;18.38;;;1.10;99.90;;;;;;4973864;28;20093;-92
2023/01/26 08:08:54;;;;;;;69.53;16.70;;;1.10;99.90;;;;;;4961898;28;20038;-88
2023/01/26 08:11:22;;;;;;;80.03;18.38;;;2.30;99.90;;;;;;4958020;28;20039;-92
2023/01/26 08:13:48;;;;;;;110.85;20.52;;;2.40;99.90;;;;;;4957589;28;20101;-89
2023/01/26 08:16:14;;;;;;;107.57;20.05;;;1.10;99.90;;;;;;4958800;28;20102;-90
2023/01/26 08:18:44;;;;;;;102.78;19.02;;;1.10;99.90;;;;;;4958050;28;20043;-93
2023/01/26 08:21:12;;;;;;;104.55;17.85;;;1.10;99.90;;;;;;4956536;28;20053;-90
2023/01/26 08:23:37;;;;;;;144.55;18.77;;;2.00;99.90;;;;;;4953953;28;20137;-91
2023/01/26 08:26:12;;;;;;;157.45;19.55;;;1.10;99.90;;;;;;4964783;28;20040;-92
2023/01/26 08:28:38;;;;;;;133.90;17.08;;;1.10;99.90;;;;;;4934613;28;20047;-92
2023/01/26 08:31:06;;;;;;;182.23;21.50;;;1.10;99.90;;;;;;4950410;29;20124;-91
2023/01/26 08:33:32;;;;;;;159.23;20.23;;;1.10;99.90;;;;;;4950899;29;20046;-92
2023/01/26 08:36:06;;;;;;;169.02;20.10;;;1.10;99.90;;;;;;4951277;28;20564;-91
2023/01/26 08:38:33;;;;;;;169.18;19.38;;;1.10;99.90;;;;;;4951464;28;20054;-91
2023/01/26 08:40:59;;;;;;;146.50;16.13;;;1.10;99.90;;;;;;4951297;28;20043;-92
2023/01/26 08:43:25;;;;;;;167.77;19.92;;;1.00;99.90;;;;;;4951186;28;20062;-91
2023/01/26 08:45:51;;;;;;;213.07;21.55;;;1.00;99.90;;;;;;4968967;28;20042;-91
2023/01/26 08:48:17;;;;;;;168.85;18.42;;;1.00;99.90;;;;;;4950418;28;20086;-92
2023/01/26 08:50:53;;;;;;;130.80;16.08;;;1.00;99.90;;;;;;4954901;28;20131;-92
2023/01/26 08:53:22;;;;;;;131.82;15.27;;;0.90;99.90;;;;;;4954758;28;20042;-92
2023/01/26 08:55:48;;;;;;;199.18;19.02;;;1.00;99.90;;;;;;4955361;28;20039;-92
2023/01/26 08:58:13;;;;;;;121.53;14.82;;;1.40;99.90;;;;;;4955833;28;20062;-91
2023/01/26 09:00:39;;;;;;;99.53;14.68;;;1.00;99.90;;;;;;4959846;28;20039;-92
2023/01/26 09:03:05;;;;;;;119.35;14.35;;;1.00;99.90;;;;;;4943491;28;20051;-92
2023/01/26 09:05:36;;;;;;;62.63;10.90;;;1.00;99.90;;;;;;4945788;28;20061;-91
2023/01/26 09:08:07;;;;;;;108.65;13.75;;;1.00;99.90;;;;;;4953728;28;20066;-91
2023/01/26 09:10:33;;;;;;;98.20;13.45;;;0.90;99.90;;;;;;4954482;28;20062;-88
2023/01/26 09:13:02;;;;;;;101.65;12.15;;;;;;;;;;4964879;28;20042;-91
2023/01/26 09:15:28;;;;;;;86.03;12.48;;;;;;;;;;4955725;28;20173;-89
2023/01/26 09:17:54;;;;;;;91.07;11.48;;;;;;;;;;4964731;28;20151;-91
2023/01/26 09:20:20;;;;;;;80.60;12.35;;;;;;;;;;4967011;28;20170;-91
2023/01/26 09:22:46;;;;;;;82.65;11.65;;;;;;;;;;4967614;28;20078;-92
2023/01/26 09:25:15;;;;;;;87.82;11.90;;;;;;;;;;4965890;28;20050;-91
2023/01/26 09:27:41;;;;;;;68.72;10.80;;;;;;;;;;4962155;28;20042;-93
2023/01/26 09:30:07;;;;;;;81.03;11.25;;;;;;;;;;4955569;28;20046;-92
2023/01/26 09:32:42;;;;;;;69.30;10.27;;;;;;;;;;4960196;28;20465;-93
2023/01/26 09:35:10;;;;;;;49.42;9.57;;;;;;;;;;4957303;28;20077;-93
2023/01/26 09:37:37;;;;;;;45.80;9.35;;;;;;;;;;4967936;28;20038;-92
2023/01/26 09:40:05;;;;;;;42.22;10.10;;;;;;;;;;4974414;28;20046;-93
2023/01/26 09:42:34;;;;;;;21.73;8.20;;;;;;;;;;4970443;28;20056;-91
2023/01/26 09:45:06;;;;;;;29.73;8.32;;;;;;;;;;4956812;28;20046;-92
2023/01/26 09:47:49;;;;;;;25.98;8.35;;;;;;;;;;4966859;28;20046;-91
2023/01/26 09:50:19;;;;;;;25.92;9.73;;;;;;;;;;4961146;28;20065;-87
2023/01/26 09:52:54;;;;;;;26.73;9.57;;;;;;;;;;4951980;28;20118;-88
2023/01/26 09:55:21;;;;;;;24.65;8.63;;;;;;;;;;4953351;28;20141;-89
2023/01/26 09:57:48;;;;;;;22.50;10.48;;;;;;;;;;4953652;28;20047;-87
2023/01/26 10:00:22;;;;;;;31.38;13.00;;;;;;;;;;4954095;28;20038;-89
2023/01/26 10:02:57;;;;;;;31.92;10.60;;;;;;;;;;4957821;28;20057;-88
2023/01/26 10:05:33;;;;;;;28.70;10.75;;;;;;;;;;4969160;28;20058;-89
2023/01/26 10:07:59;;;;;;;27.55;11.10;;;;;;;;;;4961311;28;20069;-89
2023/01/26 10:10:36;;;;;;;33.33;11.50;;;;;;;;;;4976910;28;20146;-90
2023/01/26 10:13:02;;;;;;;33.10;10.98;;;;;;;;;;4975312;28;20053;-89
2023/01/26 10:15:35;;;;;;;31.40;9.88;;;;;;;;;;4963097;28;20044;-89
2023/01/26 10:18:04;;;;;;;37.60;10.15;;;;;;;;;;4978169;28;20049;-88
2023/01/26 10:20:34;;;;;;;35.15;10.52;;;;;;;;;;4978381;28;20057;-89
2023/01/26 10:23:03;;;;;;;29.23;10.15;;;;;;;;;;4977829;28;20057;-90
2023/01/26 10:25:33;;;;;;;63.35;21.73;;;;;;;;;;4977833;28;20152;-88
2023/01/26 10:28:01;;;;;;;77.22;31.75;;;;;;;;;;4956898;28;20046;-91
2023/01/26 10:30:27;;;;;;;52.53;14.77;;;4.00;99.90;;;;;;4970613;28;20044;-90
2023/01/26 10:32:52;;;;;;;71.68;38.28;;;4.10;99.90;;;;;;4958539;28;20034;-90
2023/01/26 10:35:22;;;;;;;40.05;15.38;;;4.30;99.90;;;;;;4976209;28;20458;-90
2023/01/26 10:37:48;;;;;;;44.85;10.93;;;4.40;99.90;;;;;;4976221;28;20138;-89
2023/01/26 10:40:14;;;;;;;35.55;10.18;;;4.40;99.90;;;;;;4990721;28;20128;-89
2023/01/26 10:42:40;;;;;;;46.30;20.25;;;4.70;99.90;;;;;;4974335;28;20412;-89
2023/01/26 10:45:23;;;;;;;29.08;8.02;;;4.70;99.90;;;;;;4961571;28;20046;-90
2023/01/26 10:48:25;;;;;;;31.75;9.15;;;5.00;99.90;;;;;;4957974;28;20050;-89
2023/01/26 10:50:52;;;;;;;34.13;8.27;;;5.60;99.90;;;;;;4910672;29;20522;-89
2023/01/26 10:53:28;;;;;;;28.35;8.05;;;5.20;99.90;;;;;;4953765;28;20196;-89
2023/01/26 10:56:04;;;;;;;32.65;7.28;;;5.10;99.90;;;;;;4990867;28;20058;-87
2023/01/26 10:58:40;;;;;;;27.98;6.82;;;5.60;99.90;;;;;;4957815;28;20058;-88
2023/01/26 11:01:11;;;;;;;29.60;5.68;;;5.40;99.90;;;;;;4973038;28;20156;-88
2023/01/26 11:03:37;;;;;;;31.00;6.50;;;6.00;99.90;;;;;;4972611;28;20038;-88
2023/01/26 11:06:13;;;;;;;32.00;10.38;;;6.60;99.90;;;;;;4973394;28;20058;-89
2023/01/26 11:09:04;;;;;;;33.47;7.25;;;7.50;99.90;;;;;;4956281;28;20042;-89
2023/01/26 11:11:30;;;;;;;25.92;8.70;;;5.90;99.90;;;;;;4957475;28;20100;-88
2023/01/26 11:14:17;;;;;;;27.17;5.45;;;6.10;99.90;;;;;;4969306;28;20046;-89
2023/01/26 11:17:13;;;;;;;31.90;8.32;;;6.30;99.90;;;;;;4979355;28;20042;-87
2023/01/26 11:19:57;;;;;;;26.58;4.68;;;6.60;99.90;;;;;;4977680;28;20037;-86
2023/01/26 11:22:41;;;;;;;26.10;4.32;;;6.70;99.90;;;;;;4983668;28;20133;-89
2023/01/26 11:25:21;;;;;;;20.95;3.58;;;6.40;99.90;;;;;;4964451;28;20062;-88
2023/01/26 11:28:18;;;;;;;22.40;4.38;;;6.70;99.90;;;;;;4973012;28;20050;-88
2023/01/26 11:31:01;;;;;;;22.70;3.75;;;7.10;99.90;;;;;;4968979;28;20051;-88
2023/01/26 11:33:44;;;;;;;23.25;4.90;;;6.90;99.90;;;;;;4983935;28;20046;-87
2023/01/26 11:36:30;;;;;;;25.10;4.47;;;6.90;99.90;;;;;;4959975;28;20065;-88
2023/01/26 11:39:11;;;;;;;22.08;3.40;;;6.90;99.90;;;;;;4974475;28;20307;-88
2023/01/26 11:42:15;;;;;;;20.35;3.95;;;7.20;99.90;;;;;;4961299;28;20467;-88
2023/01/26 11:44:53;;;;;;;22.42;3.97;;;7.10;99.90;;;;;;4981242;28;20125;-88
2023/01/26 11:48:01;;;;;;;23.35;4.38;;;7.00;99.90;;;;;;4973295;28;20141;-89
2023/01/26 11:50:45;;;;;;;21.05;4.93;;;7.40;99.90;;;;;;4943802;28;20108;-89
2023/01/26 11:53:36;;;;;;;20.83;3.58;;;7.50;99.90;;;;;;4990296;28;20053;-89
2023/01/26 11:56:39;;;;;;;14.13;3.67;;;7.60;99.90;;;;;;4970320;28;20100;-89
2023/01/26 11:59:23;;;;;;;26.10;4.10;;;7.60;99.90;;;;;;4972579;28;20556;-88
2023/01/26 12:02:22;;;;;;;17.50;4.50;;;7.70;99.90;;;;;;4972140;28;20049;-88
2023/01/26 12:04:48;;;;;;;22.70;4.90;;;7.60;99.90;;;;;;4987120;28;20046;-89
2023/01/26 12:07:50;;;;;;;21.35;4.05;;;7.40;99.90;;;;;;4965544;28;20361;-88
2023/01/26 12:10:17;;;;;;;41.58;24.83;;;9.00;99.90;;;;;;5008659;28;20488;-89
2023/01/26 12:12:49;;;;;;;21.17;6.38;;;8.50;99.90;;;;;;4972912;28;20054;-89
2023/01/26 12:15:17;;;;;;;15.55;4.68;;;7.30;99.90;;;;;;4979075;28;20573;-90
2023/01/26 12:17:47;;;;;;;19.58;5.10;;;7.50;99.90;;;;;;4989937;28;20382;-90
2023/01/26 12:20:35;;;;;;;14.05;5.18;;;7.50;99.90;;;;;;4969024;28;20055;-89
2023/01/26 12:23:05;;;;;;;15.20;3.00;;;7.70;99.90;;;;;;4953559;28;20063;-90
2023/01/26 12:25:45;;;;;;;14.90;5.00;;;8.00;99.90;;;;;;4945380;28;20050;-89
2023/01/26 12:28:29;;;;;;;22.95;4.35;;;7.70;99.90;;;;;;4988908;28;20053;-89
2023/01/26 12:31:16;;;;;;;24.45;13.75;;;7.70;99.90;;;;;;4989495;28;20488;-90
2023/01/26 12:33:42;;;;;;;22.17;6.60;;;8.10;99.90;;;;;;4989186;28;20049;-90
2023/01/26 12:36:35;;;;;;;23.55;11.90;;;8.50;99.90;;;;;;4989712;28;20042;-90
2023/01/26 12:39:18;;;;;;;13.07;3.50;;;8.30;99.90;;;;;;4990545;28;20081;-89
2023/01/26 12:42:07;;;;;;;17.20;3.58;;;8.40;99.90;;;;;;4977867;28;20126;-88
2023/01/26 12:44:53;;;;;;;20.85;3.65;;;8.50;99.90;;;;;;4988401;28;20046;-90
2023/01/26 12:51:11;;;;;;;14.23;2.60;;;10.20;99.90;;;;;;4985618;28;20057;-90
2023/01/26 12:53:51;;;;;;;10.75;2.67;;;8.40;99.90;;;;;;4988349;28;20141;-90
2023/01/26 12:56:33;;;;;;;12.70;3.63;;;8.20;99.90;;;;;;4988148;28;20101;-90
2023/01/26 12:59:10;;;;;;;11.88;3.30;;;8.00;99.90;;;;;;4989717;28;20038;-89
2023/01/26 13:01:42;;;;;;;13.10;2.50;;;8.10;99.90;;;;;;4956895;28;20175;-90
2023/01/26 13:04:11;;;;;;;12.13;2.53;;;7.70;99.90;;;;;;4956327;28;20515;-89
2023/01/26 13:06:37;;;;;;;11.57;3.38;;;7.50;99.90;;;;;;4956636;28;20074;-90
2023/01/26 13:09:18;;;;;;;11.07;1.95;;;7.30;99.90;;;;;;4956300;28;20067;-90
2023/01/26 13:11:43;;;;;;;13.40;2.90;;;8.00;99.90;;;;;;4940836;28;20090;-90
2023/01/26 13:14:33;;;;;;;9.98;2.42;;;7.70;99.90;;;;;;4972011;28;20046;-90
2023/01/26 13:17:14;;;;;;;9.80;2.17;;;7.70;99.90;;;;;;4956805;28;20042;-90
2023/01/26 13:19:42;;;;;;;13.77;2.40;;;9.80;99.90;;;;;;4971580;28;20106;-90
2023/01/26 13:22:17;;;;;;;12.63;2.20;;;9.20;99.90;;;;;;4972936;28;20093;-89
2023/01/26 13:24:46;;;;;;;13.98;6.97;;;7.70;99.90;;;;;;4972629;28;20069;-90
2023/01/26 13:27:40;;;;;;;12.25;4.15;;;8.60;99.90;;;;;;4989612;28;20146;-89
2023/01/26 13:30:35;;;;;;;10.50;2.97;;;;;;;;;;4980042;28;20062;-90
2023/01/26 13:33:17;;;;;;;11.57;4.22;;;;;;;;;;4988599;28;20535;-90
2023/01/26 13:35:43;;;;;;;;;;;;;;;;;;4972695;28;20051;-90
2023/01/26 13:38:18;;;;;;;15.02;2.45;;;;;;;;;;4972337;28;19929;-90
2023/01/26 13:40:48;;;;;;;12.07;3.28;;;;;;;;;;4973015;28;20062;-90
2023/01/26 13:43:23;;;;;;;11.32;2.90;;;;;;;;;;4965719;28;20058;-91
2023/01/26 13:46:08;;;;;;;14.80;2.72;;;;;;;;;;4972609;28;20050;-91
2023/01/26 13:48:34;;;;;;;8.88;2.45;;;;;;;;;;4976421;28;20101;-91
2023/01/26 13:51:01;;;;;;;9.07;1.95;;;;;;;;;;4976753;28;20042;-90
2023/01/26 13:53:40;;;;;;;9.48;2.30;;;;;;;;;;4976008;28;20527;-89
2023/01/26 13:56:07;;;;;;;9.18;2.55;;;;;;;;;;4992742;28;20054;-90
2023/01/26 13:58:33;;;;;;;11.57;3.22;;;;;;;;;;4975811;28;20060;-90
2023/01/26 14:01:06;;;;;;;13.88;3.90;;;;;;;;;;4989970;28;20069;-90
2023/01/26 14:03:33;;;;;;;10.75;1.58;;;;;;;;;;4973097;28;20047;-92
2023/01/26 14:06:07;;;;;;;6.32;1.67;;;;;;;;;;4958646;28;20101;-88
2023/01/26 14:08:35;;;;;;;5.78;1.73;;;8.00;99.90;;;;;;4958296;28;20093;-89
2023/01/26 14:11:04;;;;;;;7.90;2.10;;;7.90;99.90;;;;;;4966545;28;20050;-89
2023/01/26 14:13:45;;;;;;;8.70;1.92;;;7.80;99.90;;;;;;4959443;28;20042;-90
2023/01/26 14:16:21;;;;;;;7.20;1.70;;;7.80;99.90;;;;;;4959727;28;20730;-89
2023/01/26 14:18:48;;;;;;;9.48;1.85;;;7.70;99.90;;;;;;4958696;28;20100;-89
2023/01/26 14:21:20;;;;;;;8.15;1.75;;;6.60;99.90;;;;;;4973833;28;20050;-89
2023/01/26 14:23:52;;;;;;;7.75;2.08;;;7.60;99.90;;;;;;4991551;28;20409;-89
2023/01/26 14:26:31;;;;;;;15.38;7.65;;;7.70;99.90;;;;;;4955326;28;20139;-88